Time;durP1;ratioP1;P1;durP2;ratioP2;P2;SDS_P1;SDS_P2;PMS_P1;PMS_P2;Temp;Humidity;BMP_temperature;BMP_pressure;BME280_temperature;BME280_humidity;BME280_pressure;Samples;Min_cycle;Max_cycle;Signal;HPM_P1;HPM_P2
2021/09/06 00:00:11;;;;;;;5.00;3.83;;;;;;;;;;5093776;28;20100;-75
2021/09/06 00:02:37;;;;;;;5.32;3.95;;;;;;;;;;5093653;28;20092;-76
2021/09/06 00:05:05;;;;;;;4.88;4.00;;;;;;;;;;5093572;28;20028;-76
2021/09/06 00:07:31;;;;;;;4.97;4.47;;;;;;;;;;5093979;28;20031;-76
2021/09/06 00:10:00;;;;;;;5.30;4.80;;;;;;;;;;5092320;28;20060;-76
2021/09/06 00:12:26;;;;;;;7.70;4.60;;;;;;;;;;5093560;28;20386;-76
2021/09/06 00:14:52;;;;;;;5.05;4.22;;;;;;;;;;5093512;28;20081;-76
2021/09/06 00:17:18;;;;;;;6.38;4.32;;;;;;;;;;5092798;28;20059;-76
2021/09/06 00:19:44;;;;;;;6.40;4.45;;;;;;;;;;5093507;28;20032;-76
2021/09/06 00:22:10;;;;;;;6.10;4.43;;;;;;;;;;5093542;28;20036;-76
2021/09/06 00:24:36;;;;;;;6.72;4.85;;;;;;;;;;5093458;28;20459;-76
2021/09/06 00:27:02;;;;;;;5.10;4.60;;;;;;;;;;5093656;28;20020;-76
2021/09/06 00:29:28;;;;;;;5.95;5.18;;;;;;;;;;5093444;28;20476;-76
2021/09/06 00:31:55;;;;;;;5.93;5.03;;;;;;;;;;5093233;28;20017;-76
2021/09/06 00:34:21;;;;;;;6.60;5.65;;;;;;;;;;5093395;28;20048;-76
2021/09/06 00:36:47;;;;;;;6.35;5.05;;;;;;;;;;5093323;28;20447;-76
2021/09/06 00:39:13;;;;;;;7.70;5.38;;;;;;;;;;5093123;28;20054;-76
2021/09/06 00:41:39;;;;;;;6.15;5.55;;;;;;;;;;5091997;28;20119;-76
2021/09/06 00:44:05;;;;;;;6.55;5.78;;;;;;;;;;5093175;28;20459;-76
2021/09/06 00:46:31;;;;;;;5.78;5.20;;;;;;;;;;5093265;28;20099;-76
2021/09/06 00:48:57;;;;;;;6.13;5.30;;;;;;;;;;5093141;28;20052;-75
2021/09/06 00:51:24;;;;;;;5.88;5.38;;;;;;;;;;5091920;28;20471;-76
2021/09/06 00:53:50;;;;;;;6.45;5.85;;;;;;;;;;5093159;28;20509;-76
2021/09/06 00:56:16;;;;;;;6.15;5.40;;;;;;;;;;5093142;28;20035;-76
2021/09/06 00:58:43;;;;;;;6.68;5.97;;;;;;;;;;5093161;28;20157;-76
2021/09/06 01:01:09;;;;;;;5.63;4.80;;;;;;;;;;5092960;28;20106;-76
2021/09/06 01:03:35;;;;;;;6.85;5.13;;;;;;;;;;5093097;28;20040;-76
2021/09/06 01:06:01;;;;;;;5.78;4.68;;;;;;;;;;5093012;28;20036;-76
2021/09/06 01:08:28;;;;;;;7.43;5.07;;;;;;;;;;5092995;28;20031;-76
2021/09/06 01:10:54;;;;;;;5.97;5.35;;;;;;;;;;5093016;28;20059;-76
2021/09/06 01:13:21;;;;;;;6.10;5.50;;;;;;;;;;5093125;28;20451;-76
2021/09/06 01:15:47;;;;;;;6.05;5.13;;;;;;;;;;5092971;28;20055;-76
2021/09/06 01:18:13;;;;;;;6.45;5.85;;;;;;;;;;5093185;28;20059;-76
2021/09/06 01:20:39;;;;;;;5.82;5.20;;;;;;;;;;5093013;28;20060;-76
2021/09/06 01:23:05;;;;;;;7.32;5.40;;;;;;;;;;5091596;28;20043;-76
2021/09/06 01:25:31;;;;;;;8.68;6.00;;;;;;;;;;5092925;28;20032;-76
2021/09/06 01:27:57;;;;;;;8.40;6.13;;;;;;;;;;5093684;28;20467;-76
2021/09/06 01:30:23;;;;;;;7.22;6.50;;;;;;;;;;5096520;28;20162;-76
2021/09/06 01:32:49;;;;;;;7.45;5.82;;;;;;;;;;5096329;28;20024;-76
2021/09/06 01:35:15;;;;;;;6.40;4.57;;;;;;;;;;5096533;28;20032;-76
2021/09/06 01:37:42;;;;;;;6.53;5.22;;;;;;;;;;5096460;28;20052;-76
2021/09/06 01:40:08;;;;;;;6.18;4.85;;;;;;;;;;5096101;28;20566;-76
2021/09/06 01:42:34;;;;;;;4.88;4.40;;;;;;;;;;5096207;28;20042;-76
2021/09/06 01:45:04;;;;;;;5.65;4.88;;;;;;;;;;5094872;28;20444;-76
2021/09/06 01:47:30;;;;;;;6.63;5.30;;;;;;;;;;5096208;28;20221;-76
2021/09/06 01:49:57;;;;;;;6.28;5.10;;;;;;;;;;5096153;28;20031;-76
2021/09/06 01:52:23;;;;;;;6.40;5.32;;;;;;;;;;5096047;28;20027;-76
2021/09/06 01:54:50;;;;;;;6.28;5.57;;;;;;;;;;5096027;28;20028;-76
2021/09/06 01:57:16;;;;;;;7.05;5.40;;;;;;;;;;5096134;28;20028;-76
2021/09/06 01:59:42;;;;;;;6.47;5.28;;;;;;;;;;5095714;28;20024;-76
2021/09/06 02:02:08;;;;;;;8.43;6.95;;;;;;;;;;5096005;28;20070;-76
2021/09/06 02:04:34;;;;;;;7.47;6.68;;;;;;;;;;5095933;28;20066;-76
2021/09/06 02:07:01;;;;;;;7.78;7.07;;;;;;;;;;5095771;28;20108;-76
2021/09/06 02:09:27;;;;;;;7.22;6.53;;;;;;;;;;5095800;28;20102;-76
2021/09/06 02:11:53;;;;;;;7.50;6.28;;;;;;;;;;5095680;28;20031;-76
2021/09/06 02:14:19;;;;;;;6.00;5.40;;;;;;;;;;5095662;28;20035;-75
2021/09/06 02:16:45;;;;;;;7.95;6.60;;;;;;;;;;5095717;28;20472;-75
2021/09/06 02:19:11;;;;;;;6.28;5.68;;;;;;;;;;5095624;28;20028;-75
2021/09/06 02:21:37;;;;;;;7.45;6.32;;;;;;;;;;5095418;28;20384;-76
2021/09/06 02:24:03;;;;;;;6.60;5.57;;;;;;;;;;5095733;28;20043;-76
2021/09/06 02:26:30;;;;;;;6.22;5.65;;;;;;;;;;5095434;28;20024;-76
2021/09/06 02:28:56;;;;;;;6.30;5.68;;;;;;;;;;5095485;28;20085;-76
2021/09/06 02:31:22;;;;;;;6.45;5.70;;;;;;;;;;5095553;28;20028;-76
2021/09/06 02:33:48;;;;;;;6.63;6.03;;;;;;;;;;5095136;28;20035;-76
2021/09/06 02:36:14;;;;;;;7.63;6.28;;;;;;;;;;5095330;28;20028;-76
2021/09/06 02:38:40;;;;;;;7.50;6.43;;;;;;;;;;5093689;28;20079;-75
2021/09/06 02:41:06;;;;;;;7.70;6.93;;;;;;;;;;5094454;28;20028;-76
2021/09/06 02:43:32;;;;;;;8.07;6.97;;;;;;;;;;5095148;28;20039;-76
2021/09/06 02:45:58;;;;;;;7.53;6.72;;;;;;;;;;5095102;28;20024;-76
2021/09/06 02:48:24;;;;;;;6.80;6.18;;;;;;;;;;5095095;28;20060;-76
2021/09/06 02:50:50;;;;;;;7.15;6.45;;;;;;;;;;5095015;28;20391;-76
2021/09/06 02:53:17;;;;;;;7.47;6.78;;;;;;;;;;5095105;28;20023;-75
2021/09/06 02:55:43;;;;;;;7.85;7.05;;;;;;;;;;5094742;28;20024;-75
2021/09/06 02:58:09;;;;;;;8.38;7.20;;;;;;;;;;5094803;28;20054;-76
2021/09/06 03:00:35;;;;;;;7.15;6.45;;;;;;;;;;5094736;28;20051;-76
2021/09/06 03:03:01;;;;;;;9.48;7.45;;;;;;;;;;5094604;28;20036;-76
2021/09/06 03:05:27;;;;;;;8.07;7.28;;;;;;;;;;5094697;28;20035;-75
2021/09/06 03:07:53;;;;;;;7.70;6.97;;;;;;;;;;5094624;28;20028;-75
2021/09/06 03:10:19;;;;;;;8.40;7.15;;;;;;;;;;5094571;28;20499;-75
2021/09/06 03:12:45;;;;;;;8.48;7.43;;;;;;;;;;5093270;28;20024;-75
2021/09/06 03:15:12;;;;;;;7.82;7.03;;;;;;;;;;5094495;28;20028;-76
2021/09/06 03:17:38;;;;;;;7.60;6.90;;;;;;;;;;5093110;28;20024;-75
2021/09/06 03:20:04;;;;;;;7.70;6.60;;;;;;;;;;5094395;28;20113;-76
2021/09/06 03:22:30;;;;;;;8.85;7.10;;;;;;;;;;5094262;28;20035;-76
2021/09/06 03:24:56;;;;;;;9.05;7.55;;;;;;;;;;5094368;28;20024;-76
2021/09/06 03:27:22;;;;;;;8.77;7.82;;;;;;;;;;5094425;28;20081;-76
2021/09/06 03:29:49;;;;;;;8.88;8.00;;;;;;;;;;5094236;28;20060;-76
2021/09/06 03:32:15;;;;;;;8.60;7.22;;;;;;;;;;5094141;28;20035;-76
2021/09/06 03:34:41;;;;;;;7.93;7.15;;;;;;;;;;5094053;28;20040;-76
2021/09/06 03:37:07;;;;;;;8.23;7.13;;;;;;;;;;5094186;28;20024;-76
2021/09/06 03:39:33;;;;;;;8.90;8.10;;;;;;;;;;5093750;28;20059;-75
2021/09/06 03:41:59;;;;;;;11.35;8.50;;;;;;;;;;5093918;28;20093;-76
2021/09/06 03:44:25;;;;;;;9.57;7.80;;;;;;;;;;5094213;28;20111;-75
2021/09/06 03:46:53;;;;;;;10.63;9.52;;;;;;;;;;5093968;28;20024;-76
2021/09/06 03:49:19;;;;;;;9.48;8.57;;;;;;;;;;5093803;28;20077;-76
2021/09/06 03:51:45;;;;;;;9.60;8.00;;;;;;;;;;5093795;28;20021;-75
2021/09/06 03:54:11;;;;;;;8.25;7.45;;;;;;;;;;5093772;28;20039;-76
2021/09/06 03:56:37;;;;;;;8.82;7.60;;;;;;;;;;5093904;28;20038;-76
2021/09/06 03:59:03;;;;;;;8.77;7.88;;;;;;;;;;5093681;28;20382;-76
2021/09/06 04:01:29;;;;;;;8.38;7.15;;;;;;;;;;5092245;28;20032;-75
2021/09/06 04:03:55;;;;;;;8.52;7.72;;;;;;;;;;5092354;28;20040;-76
2021/09/06 04:06:21;;;;;;;11.07;7.90;;;;;;;;;;5093779;28;20475;-76
2021/09/06 04:08:47;;;;;;;10.95;7.72;;;;;;;;;;5093555;28;20024;-76
2021/09/06 04:11:14;;;;;;;9.18;8.10;;;;;;;;;;5093582;28;20024;-76
2021/09/06 04:13:40;;;;;;;9.70;7.57;;;;;;;;;;5092210;28;20537;-76
2021/09/06 04:16:08;;;;;;;11.13;7.82;;;;;;;;;;5093590;28;20050;-76
2021/09/06 04:18:34;;;;;;;8.82;7.63;;;;;;;;;;5093764;28;20406;-76
2021/09/06 04:21:01;;;;;;;9.68;8.20;;;;;;;;;;5092177;28;20036;-76
2021/09/06 04:23:27;;;;;;;12.82;8.82;;;;;;;;;;5093526;28;20060;-76
2021/09/06 04:25:53;;;;;;;9.60;8.40;;;;;;;;;;5093399;28;20024;-76
2021/09/06 04:28:19;;;;;;;12.38;10.93;;;;;;;;;;5093364;28;20032;-76
2021/09/06 04:30:45;;;;;;;12.93;11.57;;;;;;;;;;5093478;28;20032;-76
2021/09/06 04:33:11;;;;;;;11.35;10.10;;;;;;;;;;5093331;28;20035;-76
2021/09/06 04:35:37;;;;;;;11.77;9.68;;;;;;;;;;5093326;28;20032;-76
2021/09/06 04:38:03;;;;;;;10.27;9.20;;;;;;;;;;5093073;28;20034;-76
2021/09/06 04:40:30;;;;;;;13.00;9.63;;;;;;;;;;5093325;28;20034;-76
2021/09/06 04:42:56;;;;;;;14.70;10.15;;;;;;;;;;5093214;28;20031;-76
2021/09/06 04:45:24;;;;;;;10.32;8.45;;;;;;;;;;5093176;28;20028;-76
2021/09/06 04:47:50;;;;;;;12.30;9.82;;;;;;;;;;5093478;28;20032;-76
2021/09/06 04:50:16;;;;;;;11.85;8.45;;;;;;;;;;5093727;28;20028;-76
2021/09/06 04:52:42;;;;;;;9.98;8.73;;;;;;;;;;5093182;28;20031;-76
2021/09/06 04:55:08;;;;;;;10.52;8.10;;;;;;;;;;5093316;28;20028;-76
2021/09/06 04:57:34;;;;;;;12.10;9.32;;;;;;;;;;5091640;28;20051;-76
2021/09/06 05:00:01;;;;;;;9.98;8.30;;;;;;;;;;5082812;28;20028;-77
2021/09/06 05:02:27;;;;;;;10.43;8.23;;;;;;;;;;5086795;28;20024;-77
2021/09/06 05:04:53;;;;;;;27.30;20.48;;;;;;;;;;5088783;28;20032;-77
2021/09/06 05:07:19;;;;;;;10.80;8.55;;;;;;;;;;5076544;28;20151;-77
2021/09/06 05:09:45;;;;;;;10.02;8.25;;;;;;;;;;5093677;28;20076;-77
2021/09/06 05:12:11;;;;;;;9.15;7.93;;;;;;;;;;5077204;28;20040;-77
2021/09/06 05:14:37;;;;;;;12.23;8.60;;;;;;;;;;5076437;28;20085;-77
2021/09/06 05:17:03;;;;;;;12.73;8.13;;;;;;;;;;5076576;28;20111;-78
2021/09/06 05:19:30;;;;;;;13.77;8.45;;;;;;;;;;5075953;28;20028;-77
2021/09/06 05:21:56;;;;;;;12.02;9.65;;;;;;;;;;5075829;28;20087;-77
2021/09/06 05:24:22;;;;;;;10.50;8.32;;;;;;;;;;5076003;28;20028;-78
2021/09/06 05:26:48;;;;;;;17.05;9.13;;;;;;;;;;5075416;28;20032;-78
2021/09/06 05:29:14;;;;;;;9.18;8.27;;;;;;;;;;5093571;28;20047;-78
2021/09/06 05:31:40;;;;;;;10.48;8.55;;;;;;;;;;5086057;28;21193;-78
2021/09/06 05:34:06;;;;;;;13.18;8.23;;;;;;;;;;5094637;28;20032;-78
2021/09/06 05:36:32;;;;;;;10.95;8.35;;;;;;;;;;5095015;28;20016;-78
2021/09/06 05:38:58;;;;;;;11.48;10.27;;;;;;;;;;5094672;28;20048;-78
2021/09/06 05:41:25;;;;;;;10.63;8.85;;;;;;;;;;5094948;28;20067;-78
2021/09/06 05:43:51;;;;;;;9.35;8.10;;;;;;;;;;5090598;28;20514;-78
2021/09/06 05:46:19;;;;;;;10.73;8.18;;;;;;;;;;5093176;28;20032;-79
2021/09/06 05:48:45;;;;;;;9.90;7.95;;;;;;;;;;5094406;28;20032;-79
2021/09/06 05:51:16;;;;;;;9.45;8.35;;;;;;;;;;5094244;28;20028;-77
2021/09/06 05:53:42;;;;;;;10.63;7.63;;;;;;;;;;5094228;28;20039;-78
2021/09/06 05:56:08;;;;;;;11.05;10.00;;;;;;;;;;5092614;28;20031;-78
2021/09/06 05:58:35;;;;;;;20.30;16.88;;;;;;;;;;5094407;28;20028;-78
2021/09/06 06:01:01;;;;;;;11.90;7.68;;;;;;;;;;5093693;28;20036;-78
2021/09/06 06:03:27;;;;;;;8.35;7.55;;;;;;;;;;5093338;28;20044;-78
2021/09/06 06:05:53;;;;;;;8.65;7.85;;;;;;;;;;5086192;28;20048;-78
2021/09/06 06:08:19;;;;;;;8.93;8.02;;;;;;;;;;5074921;28;20052;-78
2021/09/06 06:10:47;;;;;;;8.60;7.70;;;;;;;;;;5089678;28;20040;-78
2021/09/06 06:13:13;;;;;;;11.57;6.95;;;;;;;;;;5073797;28;20104;-78
2021/09/06 06:15:39;;;;;;;10.82;8.40;;;;;;;;;;5071884;28;20029;-78
2021/09/06 06:18:05;;;;;;;9.57;7.80;;;;;;;;;;5073638;28;20028;-78
2021/09/06 06:20:31;;;;;;;9.15;7.28;;;;;;;;;;5073150;28;20042;-78
2021/09/06 06:22:57;;;;;;;7.90;7.13;;;;;;;;;;5073697;28;20035;-77
2021/09/06 06:25:23;;;;;;;8.57;7.68;;;;;;;;;;5086442;28;20021;-77
2021/09/06 06:27:49;;;;;;;12.18;10.85;;;;;;;;;;5093275;28;20020;-76
2021/09/06 06:30:16;;;;;;;18.95;16.10;;;;;;;;;;5093065;28;20020;-78
2021/09/06 06:32:42;;;;;;;74.35;64.80;;;;;;;;;;5092947;28;20104;-78
2021/09/06 06:35:08;;;;;;;13.45;11.40;;;;;;;;;;5093300;28;20028;-79
2021/09/06 06:37:34;;;;;;;8.30;7.32;;;;;;;;;;5087895;28;20460;-79
2021/09/06 06:40:00;;;;;;;10.68;6.43;;;;;;;;;;5084748;28;20131;-78
2021/09/06 06:42:27;;;;;;;9.40;6.35;;;;;;;;;;5081722;28;20444;-78
2021/09/06 06:44:53;;;;;;;7.25;5.93;;;;;;;;;;5072479;28;20163;-81
2021/09/06 06:47:19;;;;;;;6.90;6.20;;;;;;;;;;5089093;28;20036;-81
2021/09/06 06:49:47;;;;;;;8.15;5.88;;;;;;;;;;5093196;28;20036;-80
2021/09/06 06:52:13;;;;;;;8.85;6.63;;;;;;;;;;5092836;28;20016;-78
2021/09/06 06:54:40;;;;;;;8.90;6.72;;;;;;;;;;5075249;28;20021;-73
2021/09/06 06:57:06;;;;;;;10.82;7.88;;;;;;;;;;5073036;28;20027;-79
2021/09/06 06:59:33;;;;;;;7.20;5.90;;;;;;;;;;5071860;28;20028;-79
2021/09/06 07:01:59;;;;;;;8.30;7.45;;;;;;;;;;5076795;28;20040;-80
2021/09/06 07:04:25;;;;;;;10.38;6.35;;;;;;;;;;5081139;28;20500;-78
2021/09/06 07:06:52;;;;;;;11.02;6.00;;;;;;;;;;5085165;28;20482;-81
2021/09/06 07:09:18;;;;;;;9.13;8.23;;;;;;;;;;5077302;28;20454;-80
2021/09/06 07:11:44;;;;;;;25.23;20.23;;;;;;;;;;5081281;28;20028;-80
2021/09/06 07:14:10;;;;;;;10.45;7.63;;;;;;;;;;5072448;28;20052;-82
2021/09/06 07:16:36;;;;;;;7.75;6.50;;;;;;;;;;5072290;28;20475;-81
2021/09/06 07:19:02;;;;;;;26.13;23.35;;;;;;;;;;5071201;28;20078;-78
2021/09/06 07:21:31;;;;;;;23.67;10.45;;;;;;;;;;5071822;28;20383;-82
2021/09/06 07:24:00;;;;;;;21.83;17.27;;;;;;;;;;5072596;28;20496;-80
2021/09/06 07:26:26;;;;;;;10.80;9.70;;;;;;;;;;5072159;28;20029;-78
2021/09/06 07:28:53;;;;;;;7.82;6.35;;;;;;;;;;5085431;28;20089;-78
2021/09/06 07:31:19;;;;;;;8.98;6.78;;;;;;;;;;5072240;28;20058;-78
2021/09/06 07:33:45;;;;;;;11.90;8.75;;;;;;;;;;5072031;28;20024;-78
2021/09/06 07:36:11;;;;;;;7.75;6.50;;;;;;;;;;5072207;28;20052;-77
2021/09/06 07:38:37;;;;;;;9.90;6.25;;;;;;;;;;5073166;28;20078;-78
2021/09/06 07:41:03;;;;;;;9.27;5.78;;;;;;;;;;5087454;28;20043;-78
2021/09/06 07:43:30;;;;;;;24.25;7.97;;;;;;;;;;5091833;28;20035;-78
2021/09/06 07:45:57;;;;;;;6.47;5.15;;;;;;;;;;5083598;28;20039;-78
2021/09/06 07:48:23;;;;;;;6.22;5.35;;;;;;;;;;5071918;28;20482;-78
2021/09/06 07:50:49;;;;;;;11.00;6.28;;;;;;;;;;5071701;28;20475;-80
2021/09/06 07:53:16;;;;;;;9.80;6.72;;;;;;;;;;5071775;28;20101;-78
2021/09/06 07:55:43;;;;;;;7.50;6.18;;;;;;;;;;5071464;28;20812;-78
2021/09/06 07:58:09;;;;;;;6.55;5.93;;;;;;;;;;5071456;28;20047;-79
2021/09/06 08:00:35;;;;;;;12.50;6.30;;;;;;;;;;5089084;28;20028;-77
2021/09/06 08:03:01;;;;;;;8.23;5.68;;;;;;;;;;5089296;28;20832;-78
2021/09/06 08:05:31;;;;;;;6.65;4.95;;;;;;;;;;5086354;28;20479;-79
2021/09/06 08:07:58;;;;;;;6.25;5.45;;;;;;;;;;5091644;28;20031;-78
2021/09/06 08:10:24;;;;;;;8.13;5.97;;;;;;;;;;5091352;28;20028;-78
2021/09/06 08:12:50;;;;;;;6.65;5.45;;;;;;;;;;5091134;28;20032;-79
2021/09/06 08:15:16;;;;;;;6.88;6.18;;;;;;;;;;5090085;28;20036;-77
2021/09/06 08:17:42;;;;;;;6.50;5.35;;;;;;;;;;5081670;28;20023;-77
2021/09/06 08:20:11;;;;;;;8.13;6.75;;;;;;;;;;5091208;28;20024;-78
2021/09/06 08:22:37;;;;;;;9.00;6.60;;;;;;;;;;5091601;28;20060;-78
2021/09/06 08:25:05;;;;;;;15.50;12.15;;;;;;;;;;5091264;28;20054;-78
2021/09/06 08:27:31;;;;;;;7.00;5.45;;;;;;;;;;5087828;28;20024;-77
2021/09/06 08:29:57;;;;;;;7.38;5.20;;;;;;;;;;5083620;28;20090;-78
2021/09/06 08:32:24;;;;;;;5.88;5.28;;;;;;;;;;5081387;28;20029;-78
2021/09/06 08:34:52;;;;;;;6.63;5.22;;;;;;;;;;5078436;28;20032;-77
2021/09/06 08:37:18;;;;;;;8.25;4.82;;;;;;;;;;5079503;28;20131;-78
2021/09/06 08:39:44;;;;;;;9.05;5.70;;;;;;;;;;5094958;28;20055;-82
2021/09/06 08:42:11;;;;;;;8.18;4.88;;;;;;;;;;5095308;28;20498;-77
2021/09/06 08:44:37;;;;;;;9.05;6.20;;;;;;;;;;5094724;28;20035;-76
2021/09/06 08:47:04;;;;;;;18.42;8.95;;;;;;;;;;5094965;28;20098;-77
2021/09/06 08:49:30;;;;;;;7.82;5.63;;;;;;;;;;5095500;28;20039;-81
2021/09/06 08:51:58;;;;;;;10.00;5.28;;;;;;;;;;5092781;28;20069;-77
2021/09/06 08:54:24;;;;;;;14.90;13.40;;;;;;;;;;5087645;28;20483;-77
2021/09/06 08:56:50;;;;;;;6.25;5.60;;;;;;;;;;5095261;28;20056;-80
2021/09/06 08:59:18;;;;;;;5.80;4.75;;;;;;;;;;5095082;28;20050;-76
2021/09/06 09:04:32;;;;;;;7.28;5.50;;;;;;;;;;5095340;28;20514;-77
2021/09/06 09:06:59;;;;;;;6.25;5.65;;;;;;;;;;5095181;28;20042;-77
2021/09/06 09:09:40;;;;;;;5.60;4.90;;;;;;;;;;5094890;28;20032;-69
2021/09/06 09:12:09;;;;;;;5.28;4.68;;;;;;;;;;5094265;28;20039;-79
2021/09/06 09:14:37;;;;;;;11.18;9.98;;;;;;;;;;5094549;28;20032;-77
2021/09/06 09:17:04;;;;;;;6.35;5.10;;;;;;;;;;5091402;28;20016;-78
2021/09/06 09:19:32;;;;;;;12.43;7.80;;;;;;;;;;5094257;28;20028;-79
2021/09/06 09:22:03;;;;;;;7.40;6.70;;;;;;;;;;5093863;28;20028;-78
2021/09/06 09:24:29;;;;;;;24.83;20.83;;;;;;;;;;5094132;28;20032;-78
2021/09/06 09:27:02;;;;;;;11.40;10.23;;;;;;;;;;5092733;28;20026;-77
2021/09/06 09:29:29;;;;;;;6.05;5.00;;;;;;;;;;5093878;28;20034;-79
2021/09/06 09:31:56;;;;;;;10.85;5.25;;;;;;;;;;5094107;28;20046;-79
2021/09/06 09:34:22;;;;;;;6.32;4.35;;;;;;;;;;5093937;28;20098;-77
2021/09/06 09:36:49;;;;;;;6.75;5.22;;;;;;;;;;5094000;28;20106;-78
2021/09/06 09:39:16;;;;;;;6.10;5.07;;;;;;;;;;5092927;28;20451;-77
2021/09/06 09:41:44;;;;;;;16.67;5.85;;;;;;;;;;5093606;28;20025;-77
2021/09/06 09:44:21;;;;;;;8.07;7.28;;;;;;;;;;5093131;28;20032;-78
2021/09/06 09:46:53;;;;;;;10.60;5.18;;;;;;;;;;5093603;28;20103;-77
2021/09/06 09:49:19;;;;;;;6.30;4.10;;;;;;;;;;5092880;28;20027;-77
2021/09/06 09:51:45;;;;;;;8.85;5.30;;;;;;;;;;5094059;28;20028;-77
2021/09/06 09:54:12;;;;;;;18.88;16.85;;;;;;;;;;5094035;28;20024;-78
2021/09/06 09:56:38;;;;;;;17.67;14.45;;;;;;;;;;5094012;28;20134;-79
2021/09/06 09:59:06;;;;;;;8.18;6.18;;;;;;;;;;5093424;28;20490;-79
2021/09/06 10:01:38;;;;;;;5.47;4.93;;;;;;;;;;5092796;28;20425;-78
2021/09/06 10:04:05;;;;;;;5.65;4.93;;;;;;;;;;5093962;28;20043;-78
2021/09/06 10:06:32;;;;;;;5.90;4.82;;;;;;;;;;5087023;28;20852;-78
2021/09/06 10:09:00;;;;;;;7.60;4.97;;;;;;;;;;5082957;28;20406;-78
2021/09/06 10:11:46;;;;;;;6.28;4.82;;;;;;;;;;5080679;28;20031;-77
2021/09/06 10:14:21;;;;;;;13.13;6.18;;;;;;;;;;5094133;28;20020;-77
2021/09/06 10:17:00;;;;;;;4.95;4.25;;;;;;;;;;5095657;28;20027;-77
2021/09/06 10:19:43;;;;;;;8.48;5.07;;;;;;;;;;5094049;28;20024;-75
2021/09/06 10:22:27;;;;;;;5.40;4.90;;;;;;;;;;5094142;28;20020;-74
2021/09/06 10:25:03;;;;;;;5.85;5.13;;;;;;;;;;5088476;28;20140;-75
2021/09/06 10:27:30;;;;;;;8.35;5.63;;;;;;;;;;5081245;28;20028;-74
2021/09/06 10:29:59;;;;;;;5.28;4.78;;;;;;;;;;5073278;28;20348;-77
2021/09/06 10:32:34;;;;;;;5.65;5.07;;;;;;;;;;5073479;28;20024;-77
2021/09/06 10:35:08;;;;;;;11.10;6.35;;;;;;;;;;5084059;28;20024;-75
2021/09/06 10:37:35;;;;;;;8.30;5.50;;;;;;;;;;5093822;28;20036;-77
2021/09/06 10:40:05;;;;;;;5.43;4.60;;;;;;;;;;5093619;28;20056;-77
2021/09/06 10:42:32;;;;;;;5.30;4.80;;;;;;;;;;5093088;28;20501;-76
2021/09/06 10:44:59;;;;;;;12.35;5.93;;;;;;;;;;5087013;28;20028;-76
2021/09/06 10:47:25;;;;;;;8.70;6.72;;;;;;;;;;5080460;28;20474;-78
2021/09/06 10:49:52;;;;;;;16.02;7.15;;;;;;;;;;5077934;28;20033;-78
2021/09/06 10:52:20;;;;;;;14.77;6.97;;;;;;;;;;5085385;28;20028;-77
2021/09/06 10:54:46;;;;;;;13.77;6.65;;;;;;;;;;5092020;28;20475;-77
2021/09/06 10:57:14;;;;;;;8.73;7.28;;;;;;;;;;5093242;28;20500;-77
2021/09/06 10:59:43;;;;;;;13.30;8.27;;;;;;;;;;5093244;28;20371;-80
2021/09/06 11:02:09;;;;;;;10.75;7.57;;;;;;;;;;5086848;28;20120;-77
2021/09/06 11:04:36;;;;;;;16.83;14.63;;;;;;;;;;5090282;28;20028;-77
2021/09/06 11:07:03;;;;;;;13.07;11.88;;;;;;;;;;5079084;28;20020;-77
2021/09/06 11:09:29;;;;;;;8.00;6.80;;;;;;;;;;5072908;28;20086;-76
2021/09/06 11:12:06;;;;;;;12.77;10.98;;;;;;;;;;5092366;28;20039;-77
2021/09/06 11:14:34;;;;;;;13.52;12.10;;;;;;;;;;5074734;28;20059;-77
2021/09/06 11:17:00;;;;;;;10.18;9.18;;;;;;;;;;5072710;28;20115;-78
2021/09/06 11:19:28;;;;;;;7.30;6.65;;;;;;;;;;5086422;28;20123;-76
2021/09/06 11:21:58;;;;;;;7.47;6.40;;;;;;;;;;5088198;28;20437;-78
2021/09/06 11:24:26;;;;;;;9.48;7.78;;;;;;;;;;5072763;28;20032;-79
2021/09/06 11:26:55;;;;;;;17.00;15.20;;;;;;;;;;5073009;28;20052;-78
2021/09/06 11:29:23;;;;;;;10.52;9.45;;;;;;;;;;5092788;28;20077;-79
2021/09/06 11:31:50;;;;;;;11.80;10.60;;;;;;;;;;5092817;28;20059;-79
2021/09/06 11:34:16;;;;;;;8.73;7.65;;;;;;;;;;5086981;28;20032;-80
2021/09/06 11:36:45;;;;;;;9.05;8.18;;;;;;;;;;5090367;28;20024;-80
2021/09/06 11:39:11;;;;;;;11.18;10.18;;;;;;;;;;5089447;28;20084;-80
2021/09/06 11:41:37;;;;;;;8.55;7.70;;;;;;;;;;5088146;28;20032;-78
2021/09/06 11:44:05;;;;;;;13.48;12.07;;;;;;;;;;5092021;28;20081;-78
2021/09/06 11:46:31;;;;;;;8.50;7.28;;;;;;;;;;5089673;28;20487;-77
2021/09/06 11:49:05;;;;;;;6.57;5.97;;;;;;;;;;5092215;28;20035;-77
2021/09/06 11:51:31;;;;;;;;;;;;;;;;;;5093148;28;20059;-77
2021/09/06 11:53:58;;;;;;;10.65;8.40;;;;;;;;;;5085562;28;19915;-77
2021/09/06 11:56:24;;;;;;;9.27;7.03;;;;;;;;;;5086666;28;20036;-77
2021/09/06 11:58:51;;;;;;;8.68;6.20;;;;;;;;;;5085893;28;20035;-76
2021/09/06 12:01:19;;;;;;;12.68;6.53;;;;;;;;;;5091011;28;20034;-76
2021/09/06 12:03:46;;;;;;;6.15;5.47;;;;;;;;;;5076239;28;20076;-78
2021/09/06 12:06:16;;;;;;;7.07;5.13;;;;;;;;;;5078744;28;20032;-77
2021/09/06 12:08:51;;;;;;;7.63;5.93;;;;;;;;;;5079483;28;20054;-77
2021/09/06 12:11:17;;;;;;;10.05;8.43;;;;;;;;;;5083457;28;20463;-76
2021/09/06 12:13:55;;;;;;;11.90;8.48;;;;;;;;;;5091010;28;20028;-77
2021/09/06 12:16:26;;;;;;;6.40;5.70;;;;;;;;;;5091391;28;20036;-77
2021/09/06 12:18:52;;;;;;;9.68;7.50;;;;;;;;;;5092005;28;20032;-74
2021/09/06 12:21:19;;;;;;;5.68;5.18;;;;;;;;;;5092315;28;20036;-77
2021/09/06 12:23:48;;;;;;;6.30;5.70;;;;;;;;;;5091964;28;20032;-78
2021/09/06 12:26:15;;;;;;;6.45;4.88;;;;;;;;;;5090314;28;20040;-76
2021/09/06 12:28:51;;;;;;;6.63;5.30;;;;;;;;;;5091764;28;20128;-76
2021/09/06 12:31:18;;;;;;;6.40;5.20;;;;;;;;;;5091594;28;20047;-76
2021/09/06 12:33:48;;;;;;;5.55;5.05;;;;;;;;;;5091216;28;20024;-76
2021/09/06 12:36:15;;;;;;;6.60;5.93;;;;;;;;;;5091439;28;20032;-76
2021/09/06 12:38:42;;;;;;;6.75;4.70;;;;;;;;;;5084172;28;20048;-77
2021/09/06 12:41:08;;;;;;;6.80;6.15;;;;;;;;;;5071405;28;20032;-75
2021/09/06 12:43:34;;;;;;;8.88;6.00;;;;;;;;;;5071818;28;20072;-75
2021/09/06 12:46:00;;;;;;;5.68;5.10;;;;;;;;;;5074169;28;20089;-76
2021/09/06 12:48:26;;;;;;;5.75;4.75;;;;;;;;;;5091581;28;20021;-76
2021/09/06 12:50:53;;;;;;;6.22;5.55;;;;;;;;;;5091650;28;20035;-76
2021/09/06 12:53:19;;;;;;;5.20;4.70;;;;;;;;;;5083577;28;20064;-77
2021/09/06 12:55:46;;;;;;;6.38;5.78;;;;;;;;;;5088365;28;20032;-77
2021/09/06 12:58:12;;;;;;;9.00;8.10;;;;;;;;;;5088634;28;20032;-76
2021/09/06 13:00:38;;;;;;;7.07;5.85;;;;;;;;;;5091969;28;20024;-77
2021/09/06 13:03:05;;;;;;;5.30;4.70;;;;;;;;;;5079580;28;20090;-77
2021/09/06 13:05:31;;;;;;;5.93;5.30;;;;;;;;;;5071799;28;20044;-74
2021/09/06 13:07:58;;;;;;;4.65;4.10;;;;;;;;;;5071526;28;20024;-78
2021/09/06 13:10:27;;;;;;;4.57;3.97;;;;;;;;;;5071622;28;20039;-79
2021/09/06 13:12:56;;;;;;;6.45;5.60;;;;;;;;;;5088781;28;20028;-79
2021/09/06 13:15:23;;;;;;;6.25;5.07;;;;;;;;;;5085991;28;20028;-78
2021/09/06 13:17:49;;;;;;;6.20;5.40;;;;;;;;;;5084473;28;20085;-77
2021/09/06 13:20:15;;;;;;;6.78;5.30;;;;;;;;;;5083095;28;20103;-76
2021/09/06 13:22:42;;;;;;;5.47;4.97;;;;;;;;;;5086391;28;20040;-77
2021/09/06 13:25:09;;;;;;;4.95;4.45;;;;;;;;;;5093649;28;20142;-78
2021/09/06 13:27:35;;;;;;;6.35;5.75;;;;;;;;;;5095248;28;20027;-77
2021/09/06 13:30:02;;;;;;;5.43;4.85;;;;;;;;;;5086480;28;20031;-76
2021/09/06 13:32:28;;;;;;;6.20;5.60;;;;;;;;;;5074882;28;20090;-76
2021/09/06 13:34:55;;;;;;;8.65;7.88;;;;;;;;;;5074931;28;20020;-76
2021/09/06 13:37:21;;;;;;;5.63;5.13;;;;;;;;;;5073912;28;20413;-76
2021/09/06 13:39:47;;;;;;;6.78;5.32;;;;;;;;;;5094532;28;20055;-77
2021/09/06 13:42:13;;;;;;;5.20;4.70;;;;;;;;;;5094103;28;20032;-76
2021/09/06 13:44:39;;;;;;;6.85;4.97;;;;;;;;;;5093634;28;20055;-77
2021/09/06 13:47:06;;;;;;;6.90;5.43;;;;;;;;;;5093030;28;20059;-77
2021/09/06 13:49:32;;;;;;;6.57;5.05;;;;;;;;;;5092392;28;20024;-76
2021/09/06 13:51:58;;;;;;;5.97;4.82;;;;;;;;;;5094341;28;20077;-80
2021/09/06 13:54:24;;;;;;;5.30;4.35;;;;;;;;;;5093626;28;20043;-73
2021/09/06 13:56:50;;;;;;;7.35;4.72;;;;;;;;;;5094067;28;20055;-75
2021/09/06 13:59:18;;;;;;;6.18;5.10;;;;;;;;;;5091905;28;20055;-76
2021/09/06 14:01:44;;;;;;;5.35;4.85;;;;;;;;;;5092914;28;20034;-76
2021/09/06 14:04:10;;;;;;;5.22;4.72;;;;;;;;;;5093585;28;20382;-72
2021/09/06 14:06:37;;;;;;;6.57;4.80;;;;;;;;;;5093837;28;20027;-77
2021/09/06 14:09:03;;;;;;;7.53;4.93;;;;;;;;;;5093985;28;20107;-76
2021/09/06 14:11:29;;;;;;;5.70;4.82;;;;;;;;;;5093819;28;20032;-76
2021/09/06 14:13:56;;;;;;;6.13;5.50;;;;;;;;;;5093189;28;20024;-79
2021/09/06 14:16:22;;;;;;;5.45;4.95;;;;;;;;;;5093755;28;20498;-81
2021/09/06 14:18:48;;;;;;;7.25;5.35;;;;;;;;;;5093938;28;20035;-76
2021/09/06 14:21:14;;;;;;;8.13;5.80;;;;;;;;;;5092949;28;20020;-77
2021/09/06 14:23:40;;;;;;;7.28;5.43;;;;;;;;;;5093055;28;20082;-76
2021/09/06 14:26:06;;;;;;;8.73;5.60;;;;;;;;;;5093195;28;20040;-77
2021/09/06 14:28:32;;;;;;;7.43;5.53;;;;;;;;;;5092639;28;20036;-77
2021/09/06 14:30:59;;;;;;;8.70;5.70;;;;;;;;;;5093497;28;20099;-75
2021/09/06 14:33:28;;;;;;;6.50;5.15;;;;;;;;;;5093415;28;20024;-76
2021/09/06 14:35:57;;;;;;;11.00;9.15;;;;;;;;;;5091866;28;20036;-77
2021/09/06 14:38:23;;;;;;;5.07;4.57;;;;;;;;;;5092700;28;20072;-76